sensor_id;sensor_type;location;lat;lon;timestamp;temperature;humidity
21312;DHT22;18076;52.154;10.570;2022-10-31T00:02:15;13.30;99.90
21312;DHT22;18076;52.154;10.570;2022-10-31T00:04:41;13.30;99.90
21312;DHT22;18076;52.154;10.570;2022-10-31T00:07:06;13.30;99.90
21312;DHT22;18076;52.154;10.570;2022-10-31T00:09:31;13.40;99.90
21312;DHT22;18076;52.154;10.570;2022-10-31T00:11:57;13.40;99.90
21312;DHT22;18076;52.154;10.570;2022-10-31T00:14:23;13.50;99.90
21312;DHT22;18076;52.154;10.570;2022-10-31T00:16:48;13.40;99.90
21312;DHT22;18076;52.154;10.570;2022-10-31T00:19:14;13.40;99.90
21312;DHT22;18076;52.154;10.570;2022-10-31T00:21:39;13.40;99.90
21312;DHT22;18076;52.154;10.570;2022-10-31T00:24:05;13.40;99.90
21312;DHT22;18076;52.154;10.570;2022-10-31T00:26:31;13.40;99.90
21312;DHT22;18076;52.154;10.570;2022-10-31T00:28:57;13.40;99.90
21312;DHT22;18076;52.154;10.570;2022-10-31T00:31:22;13.40;99.90
21312;DHT22;18076;52.154;10.570;2022-10-31T00:33:48;13.50;99.90
21312;DHT22;18076;52.154;10.570;2022-10-31T00:36:14;13.40;99.90
21312;DHT22;18076;52.154;10.570;2022-10-31T00:38:41;13.40;99.90
21312;DHT22;18076;52.154;10.570;2022-10-31T00:41:07;13.40;99.90
21312;DHT22;18076;52.154;10.570;2022-10-31T00:43:32;13.40;99.90
21312;DHT22;18076;52.154;10.570;2022-10-31T00:45:58;13.30;99.90
21312;DHT22;18076;52.154;10.570;2022-10-31T00:48:24;13.40;99.90
21312;DHT22;18076;52.154;10.570;2022-10-31T00:50:49;13.30;99.90
21312;DHT22;18076;52.154;10.570;2022-10-31T00:53:15;13.30;99.90
21312;DHT22;18076;52.154;10.570;2022-10-31T00:55:40;13.30;99.90
21312;DHT22;18076;52.154;10.570;2022-10-31T00:58:06;13.20;99.90
21312;DHT22;18076;52.154;10.570;2022-10-31T01:00:32;13.20;99.90
21312;DHT22;18076;52.154;10.570;2022-10-31T01:02:57;13.10;99.90
21312;DHT22;18076;52.154;10.570;2022-10-31T01:05:23;13.10;99.90
21312;DHT22;18076;52.154;10.570;2022-10-31T01:07:48;13.10;99.90
21312;DHT22;18076;52.154;10.570;2022-10-31T01:10:14;13.00;99.90
21312;DHT22;18076;52.154;10.570;2022-10-31T01:12:40;13.00;99.90
21312;DHT22;18076;52.154;10.570;2022-10-31T01:15:06;13.00;99.90
21312;DHT22;18076;52.154;10.570;2022-10-31T01:17:32;13.00;99.90
21312;DHT22;18076;52.154;10.570;2022-10-31T01:19:58;12.90;99.90
21312;DHT22;18076;52.154;10.570;2022-10-31T01:22:23;12.90;99.90
21312;DHT22;18076;52.154;10.570;2022-10-31T01:24:49;12.90;99.90
21312;DHT22;18076;52.154;10.570;2022-10-31T01:27:14;12.90;99.90
21312;DHT22;18076;52.154;10.570;2022-10-31T01:29:40;12.90;99.90
21312;DHT22;18076;52.154;10.570;2022-10-31T01:32:05;13.20;99.90
21312;DHT22;18076;52.154;10.570;2022-10-31T01:34:31;13.40;99.90
21312;DHT22;18076;52.154;10.570;2022-10-31T01:36:56;13.70;99.90
21312;DHT22;18076;52.154;10.570;2022-10-31T01:39:22;13.80;99.90
21312;DHT22;18076;52.154;10.570;2022-10-31T01:41:48;13.90;99.90
21312;DHT22;18076;52.154;10.570;2022-10-31T01:46:41;14.20;99.90
21312;DHT22;18076;52.154;10.570;2022-10-31T01:49:12;14.20;99.90
21312;DHT22;18076;52.154;10.570;2022-10-31T01:51:40;14.30;99.90
21312;DHT22;18076;52.154;10.570;2022-10-31T01:54:08;14.40;99.90
21312;DHT22;18076;52.154;10.570;2022-10-31T01:56:34;14.40;99.90
21312;DHT22;18076;52.154;10.570;2022-10-31T01:59:02;14.40;99.90
21312;DHT22;18076;52.154;10.570;2022-10-31T02:01:29;14.40;99.90
21312;DHT22;18076;52.154;10.570;2022-10-31T02:03:55;14.50;99.90
21312;DHT22;18076;52.154;10.570;2022-10-31T02:06:43;14.50;99.90
21312;DHT22;18076;52.154;10.570;2022-10-31T02:09:06;14.50;99.90
21312;DHT22;18076;52.154;10.570;2022-10-31T02:11:32;14.50;99.90
21312;DHT22;18076;52.154;10.570;2022-10-31T02:13:59;14.50;99.90
21312;DHT22;18076;52.154;10.570;2022-10-31T02:16:25;14.50;99.90
21312;DHT22;18076;52.154;10.570;2022-10-31T02:18:51;14.50;99.90
21312;DHT22;18076;52.154;10.570;2022-10-31T02:21:30;14.40;99.90
21312;DHT22;18076;52.154;10.570;2022-10-31T02:31:46;14.50;99.90
21312;DHT22;18076;52.154;10.570;2022-10-31T02:36:46;14.50;99.90
21312;DHT22;18076;52.154;10.570;2022-10-31T02:51:58;14.40;99.90
21312;DHT22;18076;52.154;10.570;2022-10-31T02:54:24;14.30;99.90
21312;DHT22;18076;52.154;10.570;2022-10-31T02:56:51;14.30;99.90
21312;DHT22;18076;52.154;10.570;2022-10-31T02:59:20;14.30;99.90
21312;DHT22;18076;52.154;10.570;2022-10-31T03:09:33;14.30;99.90
21312;DHT22;18076;52.154;10.570;2022-10-31T03:15:11;14.40;99.90
21312;DHT22;18076;52.154;10.570;2022-10-31T03:17:20;14.40;99.90
21312;DHT22;18076;52.154;10.570;2022-10-31T03:19:47;14.50;99.90
21312;DHT22;18076;52.154;10.570;2022-10-31T03:22:15;14.50;99.90
21312;DHT22;18076;52.154;10.570;2022-10-31T03:24:41;14.60;99.90
21312;DHT22;18076;52.154;10.570;2022-10-31T03:27:09;14.60;99.90
21312;DHT22;18076;52.154;10.570;2022-10-31T03:29:36;14.70;99.90
21312;DHT22;18076;52.154;10.570;2022-10-31T03:34:30;14.70;99.90
21312;DHT22;18076;52.154;10.570;2022-10-31T03:36:57;14.60;99.90
21312;DHT22;18076;52.154;10.570;2022-10-31T03:39:24;14.60;99.90
21312;DHT22;18076;52.154;10.570;2022-10-31T03:41:58;14.60;99.90
21312;DHT22;18076;52.154;10.570;2022-10-31T03:44:24;14.60;99.90
21312;DHT22;18076;52.154;10.570;2022-10-31T03:46:51;14.60;99.90
21312;DHT22;18076;52.154;10.570;2022-10-31T03:49:16;14.60;99.90
21312;DHT22;18076;52.154;10.570;2022-10-31T03:54:30;14.60;99.90
21312;DHT22;18076;52.154;10.570;2022-10-31T03:57:05;14.50;99.90
21312;DHT22;18076;52.154;10.570;2022-10-31T03:59:34;14.50;99.90
21312;DHT22;18076;52.154;10.570;2022-10-31T04:02:02;14.50;99.90
21312;DHT22;18076;52.154;10.570;2022-10-31T04:04:28;14.50;99.90
21312;DHT22;18076;52.154;10.570;2022-10-31T04:06:54;14.40;99.90
21312;DHT22;18076;52.154;10.570;2022-10-31T04:09:21;14.30;99.90
21312;DHT22;18076;52.154;10.570;2022-10-31T04:11:51;14.20;99.90
21312;DHT22;18076;52.154;10.570;2022-10-31T04:14:18;14.10;99.90
21312;DHT22;18076;52.154;10.570;2022-10-31T04:16:43;13.90;99.90
21312;DHT22;18076;52.154;10.570;2022-10-31T04:19:10;13.80;99.90
21312;DHT22;18076;52.154;10.570;2022-10-31T04:21:36;13.70;99.90
21312;DHT22;18076;52.154;10.570;2022-10-31T04:24:01;13.60;99.90
21312;DHT22;18076;52.154;10.570;2022-10-31T04:26:27;13.40;99.90
21312;DHT22;18076;52.154;10.570;2022-10-31T04:28:52;13.30;99.90
21312;DHT22;18076;52.154;10.570;2022-10-31T04:31:18;13.30;99.90
21312;DHT22;18076;52.154;10.570;2022-10-31T04:33:43;13.20;99.90
21312;DHT22;18076;52.154;10.570;2022-10-31T04:36:09;13.10;99.90
21312;DHT22;18076;52.154;10.570;2022-10-31T04:38:35;13.00;99.90
21312;DHT22;18076;52.154;10.570;2022-10-31T04:41:00;12.90;99.90
21312;DHT22;18076;52.154;10.570;2022-10-31T04:43:26;12.90;99.90
21312;DHT22;18076;52.154;10.570;2022-10-31T04:45:52;12.90;99.90
21312;DHT22;18076;52.154;10.570;2022-10-31T04:48:17;12.80;99.90
21312;DHT22;18076;52.154;10.570;2022-10-31T04:50:43;12.90;99.90
21312;DHT22;18076;52.154;10.570;2022-10-31T04:53:08;12.80;99.90
21312;DHT22;18076;52.154;10.570;2022-10-31T04:55:37;12.70;99.90
21312;DHT22;18076;52.154;10.570;2022-10-31T04:58:03;12.60;99.90
21312;DHT22;18076;52.154;10.570;2022-10-31T05:00:28;12.50;99.90
21312;DHT22;18076;52.154;10.570;2022-10-31T05:02:55;12.40;99.90
21312;DHT22;18076;52.154;10.570;2022-10-31T05:05:22;12.40;99.90
21312;DHT22;18076;52.154;10.570;2022-10-31T05:07:51;12.30;99.90
21312;DHT22;18076;52.154;10.570;2022-10-31T05:10:18;12.30;99.90
21312;DHT22;18076;52.154;10.570;2022-10-31T05:13:02;12.20;99.90
21312;DHT22;18076;52.154;10.570;2022-10-31T05:15:28;12.20;99.90
21312;DHT22;18076;52.154;10.570;2022-10-31T05:17:54;12.20;99.90
21312;DHT22;18076;52.154;10.570;2022-10-31T05:20:21;12.10;99.90
21312;DHT22;18076;52.154;10.570;2022-10-31T05:22:47;12.10;99.90
21312;DHT22;18076;52.154;10.570;2022-10-31T05:25:13;12.10;99.90
21312;DHT22;18076;52.154;10.570;2022-10-31T05:27:43;12.00;99.90
21312;DHT22;18076;52.154;10.570;2022-10-31T05:30:09;12.00;99.90
21312;DHT22;18076;52.154;10.570;2022-10-31T05:32:39;11.90;99.90
21312;DHT22;18076;52.154;10.570;2022-10-31T05:35:05;11.90;99.90
21312;DHT22;18076;52.154;10.570;2022-10-31T05:37:33;11.90;99.90
21312;DHT22;18076;52.154;10.570;2022-10-31T05:39:58;11.80;99.90
21312;DHT22;18076;52.154;10.570;2022-10-31T05:42:24;11.80;99.90
21312;DHT22;18076;52.154;10.570;2022-10-31T05:44:49;11.80;99.90
21312;DHT22;18076;52.154;10.570;2022-10-31T05:47:15;11.70;99.90
21312;DHT22;18076;52.154;10.570;2022-10-31T05:49:40;11.80;99.90
21312;DHT22;18076;52.154;10.570;2022-10-31T05:52:06;11.80;99.90
21312;DHT22;18076;52.154;10.570;2022-10-31T05:54:31;11.70;99.90
21312;DHT22;18076;52.154;10.570;2022-10-31T05:56:57;11.70;99.90
21312;DHT22;18076;52.154;10.570;2022-10-31T05:59:22;11.70;99.90
21312;DHT22;18076;52.154;10.570;2022-10-31T06:01:48;11.70;99.90
21312;DHT22;18076;52.154;10.570;2022-10-31T06:04:13;11.70;99.90
21312;DHT22;18076;52.154;10.570;2022-10-31T06:06:39;11.70;99.90
21312;DHT22;18076;52.154;10.570;2022-10-31T06:09:04;11.70;99.90
21312;DHT22;18076;52.154;10.570;2022-10-31T06:11:30;11.60;99.90
21312;DHT22;18076;52.154;10.570;2022-10-31T06:13:55;11.70;99.90
21312;DHT22;18076;52.154;10.570;2022-10-31T06:16:21;11.70;99.90
21312;DHT22;18076;52.154;10.570;2022-10-31T06:18:47;11.70;99.90
21312;DHT22;18076;52.154;10.570;2022-10-31T06:21:12;11.70;99.90
21312;DHT22;18076;52.154;10.570;2022-10-31T06:23:38;11.70;99.90
21312;DHT22;18076;52.154;10.570;2022-10-31T06:26:03;11.70;99.90
21312;DHT22;18076;52.154;10.570;2022-10-31T06:28:29;11.70;99.90
21312;DHT22;18076;52.154;10.570;2022-10-31T06:30:54;11.70;99.90
21312;DHT22;18076;52.154;10.570;2022-10-31T06:33:20;11.70;99.90
21312;DHT22;18076;52.154;10.570;2022-10-31T06:35:46;11.70;99.90
21312;DHT22;18076;52.154;10.570;2022-10-31T06:38:12;11.80;99.90
21312;DHT22;18076;52.154;10.570;2022-10-31T06:40:38;11.80;99.90
21312;DHT22;18076;52.154;10.570;2022-10-31T06:43:03;11.90;99.90
21312;DHT22;18076;52.154;10.570;2022-10-31T06:45:29;11.90;99.90
21312;DHT22;18076;52.154;10.570;2022-10-31T06:47:54;12.00;99.90
21312;DHT22;18076;52.154;10.570;2022-10-31T06:50:21;12.10;99.90
21312;DHT22;18076;52.154;10.570;2022-10-31T06:52:56;12.10;99.90
21312;DHT22;18076;52.154;10.570;2022-10-31T06:55:22;12.10;99.90
21312;DHT22;18076;52.154;10.570;2022-10-31T06:57:51;12.20;99.90
21312;DHT22;18076;52.154;10.570;2022-10-31T07:00:17;12.30;99.90
21312;DHT22;18076;52.154;10.570;2022-10-31T07:02:42;12.30;99.90
21312;DHT22;18076;52.154;10.570;2022-10-31T07:05:08;12.50;99.90
21312;DHT22;18076;52.154;10.570;2022-10-31T07:07:33;12.60;99.90
21312;DHT22;18076;52.154;10.570;2022-10-31T07:09:59;12.70;99.90
21312;DHT22;18076;52.154;10.570;2022-10-31T07:12:24;12.80;99.90
21312;DHT22;18076;52.154;10.570;2022-10-31T07:14:50;13.00;99.90
21312;DHT22;18076;52.154;10.570;2022-10-31T07:17:15;13.10;99.90
21312;DHT22;18076;52.154;10.570;2022-10-31T07:19:41;13.30;99.90
21312;DHT22;18076;52.154;10.570;2022-10-31T07:22:07;13.50;99.90
21312;DHT22;18076;52.154;10.570;2022-10-31T07:24:32;13.70;99.90
21312;DHT22;18076;52.154;10.570;2022-10-31T07:26:58;13.90;99.90
21312;DHT22;18076;52.154;10.570;2022-10-31T07:29:23;14.10;99.90
21312;DHT22;18076;52.154;10.570;2022-10-31T07:31:49;14.30;99.90
21312;DHT22;18076;52.154;10.570;2022-10-31T07:34:14;14.40;99.90
21312;DHT22;18076;52.154;10.570;2022-10-31T07:36:40;14.60;99.90
21312;DHT22;18076;52.154;10.570;2022-10-31T07:39:05;14.60;99.90
21312;DHT22;18076;52.154;10.570;2022-10-31T07:41:31;14.70;99.90
21312;DHT22;18076;52.154;10.570;2022-10-31T07:43:56;14.70;99.90
21312;DHT22;18076;52.154;10.570;2022-10-31T07:46:22;14.80;99.90
21312;DHT22;18076;52.154;10.570;2022-10-31T07:48:47;15.10;99.90
21312;DHT22;18076;52.154;10.570;2022-10-31T07:51:13;15.50;99.90
21312;DHT22;18076;52.154;10.570;2022-10-31T07:53:38;15.60;99.90
21312;DHT22;18076;52.154;10.570;2022-10-31T07:56:04;16.10;99.90
21312;DHT22;18076;52.154;10.570;2022-10-31T07:58:29;16.80;99.90
21312;DHT22;18076;52.154;10.570;2022-10-31T08:00:57;17.40;99.90
21312;DHT22;18076;52.154;10.570;2022-10-31T08:03:22;17.90;99.90
21312;DHT22;18076;52.154;10.570;2022-10-31T08:05:48;18.30;99.90
21312;DHT22;18076;52.154;10.570;2022-10-31T08:08:14;18.40;99.90
21312;DHT22;18076;52.154;10.570;2022-10-31T08:10:40;18.50;99.90
21312;DHT22;18076;52.154;10.570;2022-10-31T08:13:09;18.70;99.90
21312;DHT22;18076;52.154;10.570;2022-10-31T08:15:35;18.60;99.90
21312;DHT22;18076;52.154;10.570;2022-10-31T08:18:04;18.50;99.90
21312;DHT22;18076;52.154;10.570;2022-10-31T08:20:30;18.50;99.90
21312;DHT22;18076;52.154;10.570;2022-10-31T08:23:05;18.30;99.90
21312;DHT22;18076;52.154;10.570;2022-10-31T08:25:33;18.10;99.90
21312;DHT22;18076;52.154;10.570;2022-10-31T08:27:59;17.80;99.90
21312;DHT22;18076;52.154;10.570;2022-10-31T08:30:25;17.60;99.90
21312;DHT22;18076;52.154;10.570;2022-10-31T08:33:02;17.40;99.90
21312;DHT22;18076;52.154;10.570;2022-10-31T08:35:28;17.30;99.90
21312;DHT22;18076;52.154;10.570;2022-10-31T08:37:54;17.50;99.90
21312;DHT22;18076;52.154;10.570;2022-10-31T08:40:20;17.60;99.90
21312;DHT22;18076;52.154;10.570;2022-10-31T08:42:45;18.00;99.90
21312;DHT22;18076;52.154;10.570;2022-10-31T08:45:11;18.50;99.90
21312;DHT22;18076;52.154;10.570;2022-10-31T08:47:37;19.10;99.90
21312;DHT22;18076;52.154;10.570;2022-10-31T08:50:02;19.80;99.90
21312;DHT22;18076;52.154;10.570;2022-10-31T08:52:28;20.40;99.90
21312;DHT22;18076;52.154;10.570;2022-10-31T08:54:53;20.80;99.90
21312;DHT22;18076;52.154;10.570;2022-10-31T08:57:19;21.10;99.90
21312;DHT22;18076;52.154;10.570;2022-10-31T08:59:44;21.40;99.90
21312;DHT22;18076;52.154;10.570;2022-10-31T09:02:10;21.70;99.90
21312;DHT22;18076;52.154;10.570;2022-10-31T09:04:35;21.90;99.90
21312;DHT22;18076;52.154;10.570;2022-10-31T09:07:01;21.60;99.90
21312;DHT22;18076;52.154;10.570;2022-10-31T09:09:26;20.90;99.90
21312;DHT22;18076;52.154;10.570;2022-10-31T09:11:52;20.60;99.90
21312;DHT22;18076;52.154;10.570;2022-10-31T09:14:17;20.70;99.90
21312;DHT22;18076;52.154;10.570;2022-10-31T09:16:43;20.80;99.90
21312;DHT22;18076;52.154;10.570;2022-10-31T09:19:08;21.30;99.90
21312;DHT22;18076;52.154;10.570;2022-10-31T09:21:34;21.80;99.90
21312;DHT22;18076;52.154;10.570;2022-10-31T09:24:00;22.40;99.90
21312;DHT22;18076;52.154;10.570;2022-10-31T09:26:25;22.80;99.90
21312;DHT22;18076;52.154;10.570;2022-10-31T09:28:51;22.80;99.90
21312;DHT22;18076;52.154;10.570;2022-10-31T09:31:16;22.60;99.90
21312;DHT22;18076;52.154;10.570;2022-10-31T09:33:42;22.50;99.90
21312;DHT22;18076;52.154;10.570;2022-10-31T09:36:08;22.60;99.90
21312;DHT22;18076;52.154;10.570;2022-10-31T09:38:33;22.60;99.90
21312;DHT22;18076;52.154;10.570;2022-10-31T09:43:48;23.30;99.90
21312;DHT22;18076;52.154;10.570;2022-10-31T09:51:32;23.90;99.90
21312;DHT22;18076;52.154;10.570;2022-10-31T09:54:04;23.70;99.90
21312;DHT22;18076;52.154;10.570;2022-10-31T09:56:31;23.30;99.90
21312;DHT22;18076;52.154;10.570;2022-10-31T09:58:57;22.70;99.90
21312;DHT22;18076;52.154;10.570;2022-10-31T10:01:30;22.50;99.90
21312;DHT22;18076;52.154;10.570;2022-10-31T10:03:59;22.50;99.90
21312;DHT22;18076;52.154;10.570;2022-10-31T10:06:27;22.80;99.90
21312;DHT22;18076;52.154;10.570;2022-10-31T10:08:54;22.70;99.90
21312;DHT22;18076;52.154;10.570;2022-10-31T10:11:36;22.60;99.90
21312;DHT22;18076;52.154;10.570;2022-10-31T10:26:45;23.30;99.90
21312;DHT22;18076;52.154;10.570;2022-10-31T10:29:18;23.50;99.90
21312;DHT22;18076;52.154;10.570;2022-10-31T10:31:48;23.70;99.90
21312;DHT22;18076;52.154;10.570;2022-10-31T10:37:23;23.80;99.90
21312;DHT22;18076;52.154;10.570;2022-10-31T10:39:35;23.80;99.90
21312;DHT22;18076;52.154;10.570;2022-10-31T10:42:06;23.80;99.90
21312;DHT22;18076;52.154;10.570;2022-10-31T10:44:52;23.70;99.90
21312;DHT22;18076;52.154;10.570;2022-10-31T10:47:44;23.60;99.90
21312;DHT22;18076;52.154;10.570;2022-10-31T10:50:13;23.30;99.90
21312;DHT22;18076;52.154;10.570;2022-10-31T10:55:43;23.40;99.90
21312;DHT22;18076;52.154;10.570;2022-10-31T10:58:11;23.40;99.90
21312;DHT22;18076;52.154;10.570;2022-10-31T11:00:40;23.60;99.90
21312;DHT22;18076;52.154;10.570;2022-10-31T11:03:06;23.70;99.90
21312;DHT22;18076;52.154;10.570;2022-10-31T11:08:07;23.20;99.90
21312;DHT22;18076;52.154;10.570;2022-10-31T11:10:33;22.70;99.90
21312;DHT22;18076;52.154;10.570;2022-10-31T11:13:21;22.40;99.90
21312;DHT22;18076;52.154;10.570;2022-10-31T11:15:59;22.10;99.90
21312;DHT22;18076;52.154;10.570;2022-10-31T11:18:26;22.00;99.90
21312;DHT22;18076;52.154;10.570;2022-10-31T11:20:54;21.90;99.90
21312;DHT22;18076;52.154;10.570;2022-10-31T11:23:20;21.80;99.90
21312;DHT22;18076;52.154;10.570;2022-10-31T11:25:53;21.60;99.90
21312;DHT22;18076;52.154;10.570;2022-10-31T11:28:19;21.70;99.90
21312;DHT22;18076;52.154;10.570;2022-10-31T11:30:46;22.00;99.90
21312;DHT22;18076;52.154;10.570;2022-10-31T11:33:16;22.30;99.90
21312;DHT22;18076;52.154;10.570;2022-10-31T11:35:42;22.40;99.90
21312;DHT22;18076;52.154;10.570;2022-10-31T11:38:12;22.60;99.90
21312;DHT22;18076;52.154;10.570;2022-10-31T11:40:40;22.90;99.90
21312;DHT22;18076;52.154;10.570;2022-10-31T11:43:16;23.10;99.90
21312;DHT22;18076;52.154;10.570;2022-10-31T11:45:42;23.40;99.90
21312;DHT22;18076;52.154;10.570;2022-10-31T11:48:18;23.50;99.90
21312;DHT22;18076;52.154;10.570;2022-10-31T11:50:49;23.60;99.90
21312;DHT22;18076;52.154;10.570;2022-10-31T11:53:16;23.50;99.90
21312;DHT22;18076;52.154;10.570;2022-10-31T11:55:43;23.10;99.90
21312;DHT22;18076;52.154;10.570;2022-10-31T11:58:21;23.10;99.90
21312;DHT22;18076;52.154;10.570;2022-10-31T12:00:49;23.30;99.90
21312;DHT22;18076;52.154;10.570;2022-10-31T12:06:03;23.60;99.90
21312;DHT22;18076;52.154;10.570;2022-10-31T12:08:31;23.90;99.90
21312;DHT22;18076;52.154;10.570;2022-10-31T12:11:00;24.10;99.90
21312;DHT22;18076;52.154;10.570;2022-10-31T12:16:09;24.20;99.90
21312;DHT22;18076;52.154;10.570;2022-10-31T12:18:42;23.90;99.90
21312;DHT22;18076;52.154;10.570;2022-10-31T12:31:49;22.20;99.90
21312;DHT22;18076;52.154;10.570;2022-10-31T12:41:46;21.60;99.90
21312;DHT22;18076;52.154;10.570;2022-10-31T12:44:27;21.30;99.90
21312;DHT22;18076;52.154;10.570;2022-10-31T12:47:03;21.20;99.90
21312;DHT22;18076;52.154;10.570;2022-10-31T12:52:08;21.10;99.90
21312;DHT22;18076;52.154;10.570;2022-10-31T12:54:45;21.10;99.90
21312;DHT22;18076;52.154;10.570;2022-10-31T12:57:27;21.10;99.90
21312;DHT22;18076;52.154;10.570;2022-10-31T13:00:07;20.90;99.90
21312;DHT22;18076;52.154;10.570;2022-10-31T13:03:19;20.60;99.90
21312;DHT22;18076;52.154;10.570;2022-10-31T13:05:29;20.50;99.90
21312;DHT22;18076;52.154;10.570;2022-10-31T13:08:09;20.30;99.90
21312;DHT22;18076;52.154;10.570;2022-10-31T13:15:50;19.90;99.90
21312;DHT22;18076;52.154;10.570;2022-10-31T13:18:22;19.90;99.90
21312;DHT22;18076;52.154;10.570;2022-10-31T13:20:49;19.90;99.90
21312;DHT22;18076;52.154;10.570;2022-10-31T13:23:27;19.90;99.90
21312;DHT22;18076;52.154;10.570;2022-10-31T13:25:54;19.90;99.90
21312;DHT22;18076;52.154;10.570;2022-10-31T13:28:33;19.90;99.90
21312;DHT22;18076;52.154;10.570;2022-10-31T13:31:00;19.90;99.90
21312;DHT22;18076;52.154;10.570;2022-10-31T13:34:01;19.90;99.90
21312;DHT22;18076;52.154;10.570;2022-10-31T13:36:21;19.90;99.90
21312;DHT22;18076;52.154;10.570;2022-10-31T13:38:53;19.90;99.90
21312;DHT22;18076;52.154;10.570;2022-10-31T13:41:40;19.90;99.90
21312;DHT22;18076;52.154;10.570;2022-10-31T13:44:22;20.00;99.90
21312;DHT22;18076;52.154;10.570;2022-10-31T13:46:49;19.90;99.90
21312;DHT22;18076;52.154;10.570;2022-10-31T13:51:50;19.70;99.90
21312;DHT22;18076;52.154;10.570;2022-10-31T13:56:50;19.50;99.90
21312;DHT22;18076;52.154;10.570;2022-10-31T13:59:23;19.30;99.90
21312;DHT22;18076;52.154;10.570;2022-10-31T14:01:50;19.20;99.90
21312;DHT22;18076;52.154;10.570;2022-10-31T14:04:17;19.20;99.90
21312;DHT22;18076;52.154;10.570;2022-10-31T14:06:45;19.10;99.90
21312;DHT22;18076;52.154;10.570;2022-10-31T14:09:20;19.10;99.90
21312;DHT22;18076;52.154;10.570;2022-10-31T14:11:47;19.20;99.90
21312;DHT22;18076;52.154;10.570;2022-10-31T14:14:13;19.20;99.90
21312;DHT22;18076;52.154;10.570;2022-10-31T14:16:39;19.10;99.90
21312;DHT22;18076;52.154;10.570;2022-10-31T14:19:14;19.20;99.90
21312;DHT22;18076;52.154;10.570;2022-10-31T14:21:41;19.20;99.90
21312;DHT22;18076;52.154;10.570;2022-10-31T14:26:52;19.00;99.90
21312;DHT22;18076;52.154;10.570;2022-10-31T14:34:33;18.70;99.90
21312;DHT22;18076;52.154;10.570;2022-10-31T14:37:14;18.60;99.90
21312;DHT22;18076;52.154;10.570;2022-10-31T14:50:18;18.10;99.90
21312;DHT22;18076;52.154;10.570;2022-10-31T14:52:47;18.00;99.90
21312;DHT22;18076;52.154;10.570;2022-10-31T14:55:13;18.00;99.90
21312;DHT22;18076;52.154;10.570;2022-10-31T14:57:42;18.00;99.90
21312;DHT22;18076;52.154;10.570;2022-10-31T15:00:15;17.90;99.90
21312;DHT22;18076;52.154;10.570;2022-10-31T15:02:46;17.80;99.90
21312;DHT22;18076;52.154;10.570;2022-10-31T15:05:15;17.80;99.90
21312;DHT22;18076;52.154;10.570;2022-10-31T15:07:54;17.70;99.90
21312;DHT22;18076;52.154;10.570;2022-10-31T15:12:46;17.40;99.90
21312;DHT22;18076;52.154;10.570;2022-10-31T15:17:41;17.30;99.90
21312;DHT22;18076;52.154;10.570;2022-10-31T15:20:10;17.30;99.90
21312;DHT22;18076;52.154;10.570;2022-10-31T15:22:36;17.30;99.90
21312;DHT22;18076;52.154;10.570;2022-10-31T15:25:01;17.20;99.90
21312;DHT22;18076;52.154;10.570;2022-10-31T15:27:27;17.20;99.90
21312;DHT22;18076;52.154;10.570;2022-10-31T15:29:57;17.10;99.90
21312;DHT22;18076;52.154;10.570;2022-10-31T15:32:24;17.10;99.90
21312;DHT22;18076;52.154;10.570;2022-10-31T15:34:50;17.10;99.90
21312;DHT22;18076;52.154;10.570;2022-10-31T15:37:20;17.00;99.90
21312;DHT22;18076;52.154;10.570;2022-10-31T15:39:47;17.00;99.90
21312;DHT22;18076;52.154;10.570;2022-10-31T15:42:34;17.00;99.90
21312;DHT22;18076;52.154;10.570;2022-10-31T15:45:00;17.00;99.90
21312;DHT22;18076;52.154;10.570;2022-10-31T15:47:26;17.00;99.90
21312;DHT22;18076;52.154;10.570;2022-10-31T15:49:55;16.90;99.90
21312;DHT22;18076;52.154;10.570;2022-10-31T15:52:35;16.90;99.90
21312;DHT22;18076;52.154;10.570;2022-10-31T15:55:05;16.80;99.90
21312;DHT22;18076;52.154;10.570;2022-10-31T15:57:45;16.70;99.90
21312;DHT22;18076;52.154;10.570;2022-10-31T16:02:46;16.60;99.90
21312;DHT22;18076;52.154;10.570;2022-10-31T16:05:16;16.50;99.90
21312;DHT22;18076;52.154;10.570;2022-10-31T16:07:47;16.50;99.90
21312;DHT22;18076;52.154;10.570;2022-10-31T16:10:23;16.40;99.90
21312;DHT22;18076;52.154;10.570;2022-10-31T16:12:50;16.30;99.90
21312;DHT22;18076;52.154;10.570;2022-10-31T16:15:16;16.30;99.90
21312;DHT22;18076;52.154;10.570;2022-10-31T16:17:43;16.30;99.90
21312;DHT22;18076;52.154;10.570;2022-10-31T16:20:26;16.30;99.90
21312;DHT22;18076;52.154;10.570;2022-10-31T16:22:53;16.20;99.90
21312;DHT22;18076;52.154;10.570;2022-10-31T16:25:40;16.00;99.90
21312;DHT22;18076;52.154;10.570;2022-10-31T16:28:16;15.90;99.90
21312;DHT22;18076;52.154;10.570;2022-10-31T16:30:43;15.80;99.90
21312;DHT22;18076;52.154;10.570;2022-10-31T16:35:53;15.70;99.90
21312;DHT22;18076;52.154;10.570;2022-10-31T16:38:19;15.70;99.90
21312;DHT22;18076;52.154;10.570;2022-10-31T16:40:45;15.60;99.90
21312;DHT22;18076;52.154;10.570;2022-10-31T16:43:12;15.60;99.90
21312;DHT22;18076;52.154;10.570;2022-10-31T16:45:42;15.50;99.90
21312;DHT22;18076;52.154;10.570;2022-10-31T16:48:15;15.50;99.90
21312;DHT22;18076;52.154;10.570;2022-10-31T16:50:43;15.50;99.90
21312;DHT22;18076;52.154;10.570;2022-10-31T16:53:09;15.50;99.90
21312;DHT22;18076;52.154;10.570;2022-10-31T16:55:46;15.50;99.90
21312;DHT22;18076;52.154;10.570;2022-10-31T16:58:14;15.40;99.90
21312;DHT22;18076;52.154;10.570;2022-10-31T17:00:40;15.40;99.90
21312;DHT22;18076;52.154;10.570;2022-10-31T17:03:07;15.50;99.90
21312;DHT22;18076;52.154;10.570;2022-10-31T17:05:33;15.50;99.90
21312;DHT22;18076;52.154;10.570;2022-10-31T17:07:59;15.40;99.90
21312;DHT22;18076;52.154;10.570;2022-10-31T17:10:25;15.40;99.90
21312;DHT22;18076;52.154;10.570;2022-10-31T17:12:51;15.30;99.90
21312;DHT22;18076;52.154;10.570;2022-10-31T17:15:22;15.30;99.90
21312;DHT22;18076;52.154;10.570;2022-10-31T17:17:48;15.20;99.90
21312;DHT22;18076;52.154;10.570;2022-10-31T17:20:18;15.10;99.90
21312;DHT22;18076;52.154;10.570;2022-10-31T17:22:44;15.10;99.90
21312;DHT22;18076;52.154;10.570;2022-10-31T17:25:12;15.00;99.90
21312;DHT22;18076;52.154;10.570;2022-10-31T17:27:38;14.90;99.90
21312;DHT22;18076;52.154;10.570;2022-10-31T17:30:04;14.90;99.90
21312;DHT22;18076;52.154;10.570;2022-10-31T17:32:30;14.70;99.90
21312;DHT22;18076;52.154;10.570;2022-10-31T17:34:55;14.70;99.90
21312;DHT22;18076;52.154;10.570;2022-10-31T17:37:21;14.60;99.90